Falls Creek, Australia
Current Conditions -  °F | °C
As of 9:00 PM on Saturday 20 Dec 2014 (Local Time) from YMAY Reporting Station
Clear Clear  
Wind Chill: 75°   Ceiling: Unl
Heat Index: 75°   Visibility: 6mi
Dew Point: 46°   Wind: 5mph
Humidity: 36%   Direction: 250°WSW
Pressure: 29.91"   Gusts: NA
Location:  36.87°S, 147.27°E
Report Text: YMAY 201000Z AUTO 25004KT 9999 // NCD 24/08 Q1013
Loading
Personal Weather Stations






























Interactive Weather Map New forecast layout! Learn more

10-Day Weather Forecast

Advertisements
Track Severe Weather on mobile